Portada
METAR-TAF:

METAR-TAF

Aeroports :

Aeroport d'Oslo-Gardermoen

Oslo, Noruega

latitud: 60-12N, longitud: 011-05E, altitud: 208 m

Observació

L'informe es va fer fa 13 minuts, a les 10:50 UTC
Vent 8 kt del Sud
Temperatura 2°C
Humitat 100%
Pressió 992 hPa
Visibilitat: 9000 m
Cel ennuvolat a una alçada de 500 ft
pluja

METAR: ENGM 121050Z 17008KT 9000 -RA BKN005 02/02 Q0992 RERA TEMPO BKN004

Hora: 12:03 (11:03 UTC)

Pronòstic

Pronòstic vàlid del 12 a les 08 UTC al 13 a les 06 UTC
Vent 12 kt del Sud/Sud-Est
Visibilitat 10 km o més
Núvols disperses a una alçada de 800 ft
Cel ennuvolat a una alçada de 1500 ft
Temporalment
l' 12 a les 08 UTC al 12 a les 16 UTC
Visibilitat: 4000 m
Cel ennuvolat a una alçada de 300 ft
xàfecs de pluja, boirina
Temporalment
l' 12 a les 16 UTC al 13 a les 06 UTC
Visibilitat: 2000 m
Cel ennuvolat a una alçada de 300 ft
neu, pluja, boirina

TAF: ENGM 1208/1306 16012KT 9999 SCT008 BKN015 TEMPO 1208/1216 4000 SHRA BR BKN003 TEMPO 1216/1306 2000 -SNRA BR BKN003

Observacions i pronòstics meteorològics de més de 4000 aeroports (METAR i TAF).

Les estacions disponibles són els punts grocs i vermells al mapa.

Posi el ratolí al punt desitjat per veure el nom de l'estació.

Feu clic per veure les observacions i els pronòstics meteorològics.

Per canviar el mapa: feu clic els botons verds amb una creu de color negre per apropar; al botó verd amb un guió per allunyar la imatge; o en les fletxes verdes per a mapes adjacents.


METAR-TAF: